Cut Off, LA (70345)

4:55 PM CST on February 19, 2017 (GMT -0600)
Galliano | | Change Station

Elev 3 ft 29.44 °N, 90.26 °W | Updated 20 minutes ago

Mostly Cloudy
Mostly Cloudy
73 °F
Feels Like 73 °F
N
7
Wind Variable Wind from East

Today
High -- | Low -- °F
--% Chance of Precip.
Yesterday
High -- | Low -- °F
Precip. -- in
Pressure 30.03 in
Visibility 10.0 miles
Clouds Overcast 1300 ft
Dew Point 66 °F
Humidity 78%
Rainfall 0.00 in
Snow Depth Not available.
6:36 AM 5:53 PM
Last Quarter, 39% visible
METAR KGAO 192235Z AUTO 10006KT 10SM OVC013 23/19 A3003 RMK AO2 T02270187
Pressure 30.03 in
Visibility 10.0 miles
Clouds Overcast 1300 ft
Dew Point 66 °F
Humidity 78%
Rainfall 0.00 in
Snow Depth Not available.
6:36 AM 5:53 PM
Last Quarter, 39% visible
METAR KGAO 192235Z AUTO 10006KT 10SM OVC013 23/19 A3003 RMK AO2 T02270187

Get Your Daily Forecast Email!

Thanks for signing up!

Be on the lookout for a verification email in your inbox.

You'll start receiving the daily forecast at 8 AM.

×

10-Day Weather Forecast

Almanac

Astronomy

Feb. 19, 2017 Rise Set
Actual Time
Civil Twilight
Nautical Twilight
Astronomical Twilight
Moon
Length of Visible Light
Length of Day
Tomorrow will be .
, % of the Moon is Illuminated

Today's Extremes

State Highs State Lows

Community

WunderPhotos

Upload Photos

1,962,540 photos uploaded!

WunderBlog® & News

Nearby

Air Quality

  Air Quality AQ Index Pollutant
Not available.

Snow Depth

Station Depth Elevation

Earthquake Activity

City Distance Mag. Time & Date
Minimum magnitude displayed is 2.5.

Coastal Water Temperatures

Place Temperature

Stations

Nearby Weather Stations

Station Location Temp. Windchill Dew Point Humidity Wind Precip. Elev Updated Type
                   

Watches & Warnings

There are currently no watches in effect.